createdAt,value
2022-12-17T00:17:32.733Z,-6.10
2022-12-17T00:22:57.877Z,-6.10
2022-12-17T00:28:28.246Z,-6.20
2022-12-17T00:31:10.840Z,-6.30
2022-12-17T00:36:36.138Z,-6.40
2022-12-17T00:39:19.216Z,-6.40
2022-12-17T00:44:46.859Z,-6.70
2022-12-17T00:52:54.728Z,-7.00
2022-12-17T00:58:21.559Z,-7.00
2022-12-17T01:01:06.691Z,-7.10
2022-12-17T01:03:49.134Z,-7.10
2022-12-17T01:06:31.559Z,-7.00
2022-12-17T01:09:26.033Z,-7.00
2022-12-17T01:15:03.024Z,-7.20
2022-12-17T01:17:48.603Z,-7.10
2022-12-17T01:20:46.454Z,-7.00
2022-12-17T01:26:12.803Z,-7.40
2022-12-17T01:28:56.074Z,-7.00
2022-12-17T01:34:24.231Z,-7.00
2022-12-17T01:39:49.542Z,-7.10
2022-12-17T01:42:31.933Z,-7.10
2022-12-17T01:45:14.841Z,-7.20
2022-12-17T01:48:16.226Z,-7.10
2022-12-17T01:51:06.946Z,-7.20
2022-12-17T01:53:52.521Z,-7.30
2022-12-17T01:59:19.499Z,-7.40
2022-12-17T02:02:03.350Z,-7.30
2022-12-17T02:04:46.674Z,-7.40
2022-12-17T02:07:44.330Z,-7.50
2022-12-17T02:10:37.915Z,-7.50
2022-12-17T02:13:28.588Z,-7.60
2022-12-17T02:16:16.728Z,-7.60
2022-12-17T02:19:04.420Z,-7.70
2022-12-17T02:21:48.861Z,-7.80
2022-12-17T02:24:55.532Z,-7.70
2022-12-17T02:27:41.253Z,-7.80
2022-12-17T02:30:25.750Z,-7.80
2022-12-17T02:33:09.950Z,-7.90
2022-12-17T02:35:58.438Z,-7.90
2022-12-17T02:38:42.788Z,-8.00
2022-12-17T02:41:30.574Z,-8.00
2022-12-17T02:44:16.588Z,-7.90
2022-12-17T02:46:59.353Z,-8.00
2022-12-17T02:49:42.396Z,-8.00
2022-12-17T02:52:30.626Z,-8.00
2022-12-17T02:55:15.779Z,-8.10
2022-12-17T03:00:45.495Z,-8.20
2022-12-17T03:03:28.323Z,-8.30
2022-12-17T03:11:36.274Z,-8.20
2022-12-17T03:14:18.767Z,-8.20
2022-12-17T03:17:03.824Z,-8.40
2022-12-17T03:19:46.347Z,-8.40
2022-12-17T03:22:28.759Z,-8.50
2022-12-17T03:25:11.192Z,-8.60
2022-12-17T03:30:39.091Z,-8.60
2022-12-17T03:33:27.341Z,-8.60
2022-12-17T03:38:52.387Z,-8.60
2022-12-17T03:47:00.147Z,-7.90
2022-12-17T03:49:45.144Z,-8.70
2022-12-17T03:52:27.515Z,-8.80
2022-12-17T03:55:09.910Z,-8.80
2022-12-17T03:57:52.327Z,-8.90
2022-12-17T04:00:37.760Z,-8.80
2022-12-17T04:03:20.237Z,-8.80
2022-12-17T04:06:05.236Z,-8.90
2022-12-17T04:08:47.610Z,-8.80
2022-12-17T04:11:30.026Z,-8.90
2022-12-17T04:14:12.451Z,-8.90
2022-12-17T04:16:57.886Z,-8.90
2022-12-17T04:19:40.301Z,-9.10
2022-12-17T04:22:25.350Z,-9.00
2022-12-17T04:25:07.710Z,-9.10
2022-12-17T04:27:50.115Z,-9.20
2022-12-17T04:30:32.713Z,-9.30
2022-12-17T04:33:15.085Z,-9.30
2022-12-17T04:35:57.230Z,-9.30
2022-12-17T04:38:42.209Z,-9.40
2022-12-17T04:41:24.606Z,-9.50
2022-12-17T04:44:07.171Z,-9.40
2022-12-17T04:46:49.411Z,-9.50
2022-12-17T04:49:31.853Z,-9.60
2022-12-17T04:52:29.154Z,-9.60
2022-12-17T04:55:22.993Z,-9.60
2022-12-17T04:58:05.403Z,-9.60
2022-12-17T05:00:47.767Z,-9.70
2022-12-17T05:03:31.557Z,-9.70
2022-12-17T05:06:28.903Z,-9.80
2022-12-17T05:09:11.402Z,-9.90
2022-12-17T05:11:56.383Z,-9.90
2022-12-17T05:14:38.772Z,-10.00
2022-12-17T05:17:33.578Z,-10.00
2022-12-17T05:20:15.989Z,-10.00
2022-12-17T05:23:01.496Z,-10.00
2022-12-17T05:25:43.899Z,-10.00
2022-12-17T05:28:28.816Z,-10.10
2022-12-17T05:31:11.923Z,-10.10
2022-12-17T05:33:54.479Z,-10.30
2022-12-17T05:36:36.875Z,-9.90
2022-12-17T05:39:19.430Z,-10.30
2022-12-17T05:42:01.875Z,-10.30
2022-12-17T05:44:46.858Z,-10.50
2022-12-17T05:50:11.870Z,-10.50
2022-12-17T05:52:54.322Z,-10.70
2022-12-17T05:58:23.493Z,-10.60
2022-12-17T06:01:10.768Z,-10.70
2022-12-17T06:03:53.396Z,-10.60
2022-12-17T06:09:18.775Z,-10.40
2022-12-17T06:12:03.006Z,-11.00
2022-12-17T06:14:45.511Z,-10.70
2022-12-17T06:17:30.585Z,-10.70
2022-12-17T06:23:07.630Z,-9.60
2022-12-17T06:25:50.062Z,-11.00
2022-12-17T06:31:15.174Z,-10.70
2022-12-17T06:34:00.247Z,-10.70
2022-12-17T06:36:42.666Z,-11.00
2022-12-17T06:44:50.552Z,-11.10
2022-12-17T06:47:33.451Z,-11.00
2022-12-17T06:50:19.005Z,-11.20
2022-12-17T06:58:26.722Z,-11.20
2022-12-17T07:01:09.223Z,-11.30
2022-12-17T07:06:36.944Z,-11.20
2022-12-17T07:09:19.402Z,-11.30
2022-12-17T07:12:01.864Z,-11.30
2022-12-17T07:17:27.206Z,-11.30
2022-12-17T07:20:09.654Z,-11.40
2022-12-17T07:22:54.684Z,-11.50
2022-12-17T07:25:40.455Z,-11.30
2022-12-17T07:31:07.954Z,-11.20
2022-12-17T07:33:50.361Z,-11.30
2022-12-17T07:36:32.745Z,-10.60
2022-12-17T07:39:17.803Z,-11.50
2022-12-17T07:42:00.262Z,-11.50
2022-12-17T07:44:42.781Z,-11.50
2022-12-17T07:50:07.830Z,-11.40
2022-12-17T07:52:50.331Z,-11.60
2022-12-17T07:55:35.403Z,-11.40
2022-12-17T07:58:20.215Z,-11.50
2022-12-17T08:01:02.780Z,-11.50
2022-12-17T08:09:10.902Z,-11.40
2022-12-17T08:11:55.892Z,-11.20
2022-12-17T08:14:38.294Z,-11.30
2022-12-17T08:17:20.811Z,-11.20
2022-12-17T08:20:03.311Z,-11.40
2022-12-17T08:25:28.470Z,-11.00
2022-12-17T08:28:41.311Z,-11.20
2022-12-17T08:31:17.459Z,-11.10
2022-12-17T08:34:04.763Z,-11.30
2022-12-17T08:39:32.738Z,-10.90
2022-12-17T08:42:15.145Z,-10.70
2022-12-17T08:45:00.131Z,-10.70
2022-12-17T08:53:13.501Z,-10.30
2022-12-17T08:55:55.895Z,-10.40
2022-12-17T09:01:25.154Z,-10.20
2022-12-17T09:04:07.673Z,-10.10
2022-12-17T09:12:27.602Z,-9.60
2022-12-17T09:15:21.713Z,-9.70
2022-12-17T09:18:07.152Z,-9.50
2022-12-17T09:20:49.640Z,-9.20
2022-12-17T09:23:32.516Z,-9.40
2022-12-17T09:26:15.042Z,-9.50
2022-12-17T09:29:12.494Z,-9.30
2022-12-17T09:31:54.872Z,-9.10
2022-12-17T09:34:39.843Z,-9.10
2022-12-17T09:37:22.271Z,-8.80
2022-12-17T09:42:59.585Z,-8.80
2022-12-17T09:45:51.718Z,-8.40
2022-12-17T09:48:39.523Z,-8.70
2022-12-17T09:59:44.718Z,-8.30
2022-12-17T10:02:29.763Z,-8.00
2022-12-17T10:05:14.051Z,-8.10
2022-12-17T10:07:59.722Z,-8.00
2022-12-17T10:10:47.269Z,-8.00
2022-12-17T10:13:31.715Z,-7.90
2022-12-17T10:21:45.442Z,-7.80
2022-12-17T10:24:30.820Z,-7.40
2022-12-17T10:27:13.651Z,-7.20
2022-12-17T10:29:57.971Z,-6.70
2022-12-17T10:32:41.858Z,-6.30
2022-12-17T10:35:31.999Z,-6.60
2022-12-17T10:38:16.214Z,-6.20
2022-12-17T10:41:01.459Z,-6.10
2022-12-17T10:43:45.844Z,-6.10
2022-12-17T10:46:38.067Z,-5.90
2022-12-17T10:49:25.256Z,-5.90
2022-12-17T10:52:14.009Z,-5.80
2022-12-17T10:54:56.402Z,-5.50
2022-12-17T10:57:48.146Z,-5.50
2022-12-17T11:00:37.699Z,-5.30
2022-12-17T11:03:20.136Z,-5.10
2022-12-17T11:06:07.699Z,-5.00
2022-12-17T11:08:50.330Z,-5.10
2022-12-17T11:11:32.778Z,-3.30
2022-12-17T11:14:20.672Z,-4.70
2022-12-17T11:17:06.396Z,-4.50
2022-12-17T11:19:55.899Z,-3.00
2022-12-17T11:22:47.476Z,-3.30
2022-12-17T11:25:41.997Z,-3.50
2022-12-17T11:28:32.197Z,-3.60
2022-12-17T11:31:37.921Z,-4.20
2022-12-17T11:34:28.609Z,-4.20
2022-12-17T11:37:20.646Z,-3.10
2022-12-17T11:40:09.919Z,-4.00
2022-12-17T11:42:59.282Z,-3.40
2022-12-17T11:45:47.921Z,-3.80
2022-12-17T11:48:43.311Z,-3.30
2022-12-17T11:51:33.085Z,-3.70
2022-12-17T11:54:22.341Z,-3.70
2022-12-17T11:57:16.258Z,-3.60
2022-12-17T12:00:04.782Z,-3.20
2022-12-17T12:03:06.410Z,-3.30
2022-12-17T12:06:01.217Z,-3.30
2022-12-17T12:08:45.603Z,-3.30
2022-12-17T12:11:39.973Z,-3.10
2022-12-17T12:14:38.802Z,-3.00
2022-12-17T12:17:44.167Z,-2.90
2022-12-17T12:20:38.364Z,-2.90
2022-12-17T12:23:35.014Z,-2.80
2022-12-17T12:26:27.445Z,-2.80
2022-12-17T12:29:20.892Z,-2.50
2022-12-17T12:32:15.781Z,-2.60
2022-12-17T12:35:00.771Z,-2.70
2022-12-17T12:37:44.496Z,-2.70
2022-12-17T12:40:39.953Z,-2.60
2022-12-17T12:43:29.783Z,-2.80
2022-12-17T12:46:19.748Z,-2.70
2022-12-17T12:49:10.473Z,-2.90
2022-12-17T12:51:53.937Z,-3.00
2022-12-17T12:54:38.842Z,-3.10
2022-12-17T12:57:41.534Z,-3.20
2022-12-17T13:00:41.840Z,-3.20
2022-12-17T13:03:33.802Z,-3.20
2022-12-17T13:06:08.293Z,-3.20
2022-12-17T13:08:38.901Z,-3.10
2022-12-17T13:11:32.457Z,-2.90
2022-12-17T13:14:13.611Z,-3.00
2022-12-17T13:16:54.751Z,-3.00
2022-12-17T13:19:38.322Z,-2.90
2022-12-17T13:22:31.520Z,-2.90
2022-12-17T13:25:18.505Z,-2.80
2022-12-17T13:27:49.076Z,-2.80
2022-12-17T13:30:33.760Z,-2.80
2022-12-17T13:33:20.946Z,-2.80
2022-12-17T13:36:02.876Z,-2.80
2022-12-17T13:38:41.955Z,-2.70
2022-12-17T13:41:14.713Z,-2.80
2022-12-17T13:43:47.845Z,-2.70
2022-12-17T13:46:26.480Z,-2.90
2022-12-17T13:51:29.732Z,-3.00
2022-12-17T13:54:01.899Z,-3.10
2022-12-17T13:56:33.531Z,-3.00
2022-12-17T13:59:09.325Z,-3.40
2022-12-17T14:01:50.847Z,-3.10
2022-12-17T14:04:26.080Z,-3.40
2022-12-17T14:06:58.541Z,-3.80
2022-12-17T14:09:36.395Z,-3.70
2022-12-17T14:12:20.614Z,-3.70
2022-12-17T14:14:52.106Z,-3.80
2022-12-17T14:17:26.390Z,-3.30
2022-12-17T14:20:02.191Z,-4.00
2022-12-17T14:22:37.400Z,-3.30
2022-12-17T14:25:13.530Z,-3.90
2022-12-17T14:27:51.556Z,-4.00
2022-12-17T14:30:27.850Z,-4.00
2022-12-17T14:33:00.768Z,-4.30
2022-12-17T14:35:33.361Z,-4.20
2022-12-17T14:38:04.552Z,-3.50
2022-12-17T14:40:34.883Z,-3.40
2022-12-17T14:43:02.337Z,-3.30
2022-12-17T14:45:32.540Z,-3.30
2022-12-17T14:48:07.202Z,-4.70
2022-12-17T14:50:38.874Z,-4.80
2022-12-17T14:53:27.263Z,-4.20
2022-12-17T14:55:59.295Z,-4.90
2022-12-17T14:58:29.909Z,-3.30
2022-12-17T15:01:09.132Z,-5.10
2022-12-17T15:03:46.302Z,-4.00
2022-12-17T15:06:20.179Z,-5.30
2022-12-17T15:08:53.337Z,-5.20
2022-12-17T15:11:25.320Z,-5.40
2022-12-17T15:13:56.780Z,-3.30
2022-12-17T15:16:27.228Z,-5.50
2022-12-17T15:19:01.230Z,-5.60
2022-12-17T15:21:31.190Z,-3.60
2022-12-17T15:24:01.217Z,-5.80
2022-12-17T15:26:31.280Z,-5.90
2022-12-17T15:29:01.232Z,-6.10
2022-12-17T15:31:35.452Z,-4.30
2022-12-17T15:34:08.727Z,-6.10
2022-12-17T15:36:38.584Z,-6.10
2022-12-17T15:39:09.708Z,-6.10
2022-12-17T15:41:52.127Z,-4.20
2022-12-17T15:44:21.993Z,-6.20
2022-12-17T15:46:51.892Z,-6.30
2022-12-17T15:49:24.457Z,-6.50
2022-12-17T15:51:54.366Z,-6.50
2022-12-17T15:54:25.234Z,-6.60
2022-12-17T15:56:56.342Z,-6.70
2022-12-17T15:59:26.421Z,-6.70
2022-12-17T16:01:56.444Z,-6.90
2022-12-17T16:04:29.000Z,-7.00
2022-12-17T16:06:58.944Z,-7.10
2022-12-17T16:09:29.862Z,-7.10
2022-12-17T16:12:00.565Z,-7.20
2022-12-17T16:14:30.558Z,-7.20
2022-12-17T16:17:00.469Z,-7.30
2022-12-17T16:19:33.011Z,-7.30
2022-12-17T16:22:02.913Z,-7.30
2022-12-17T16:24:32.790Z,-7.30
2022-12-17T16:27:04.841Z,-7.40
2022-12-17T16:29:34.858Z,-7.40
2022-12-17T16:32:04.878Z,-7.40
2022-12-17T16:34:37.386Z,-7.50
2022-12-17T16:37:07.413Z,-7.60
2022-12-17T16:39:37.351Z,-7.70
2022-12-17T16:42:07.407Z,-7.70
2022-12-17T16:44:37.462Z,-7.70
2022-12-17T16:47:07.648Z,-7.70
2022-12-17T16:49:40.284Z,-7.80
2022-12-17T16:52:10.345Z,-7.80
2022-12-17T16:54:40.245Z,-8.00
2022-12-17T16:57:10.173Z,-8.10
2022-12-17T16:59:40.101Z,-8.30
2022-12-17T17:02:15.515Z,-8.40
2022-12-17T17:04:48.125Z,-8.30
2022-12-17T17:07:17.983Z,-8.30
2022-12-17T17:09:47.968Z,-8.30
2022-12-17T17:12:17.938Z,-8.30
2022-12-17T17:14:47.834Z,-8.00
2022-12-17T17:17:18.987Z,-8.40
2022-12-17T17:20:12.994Z,-8.50
2022-12-17T17:22:43.070Z,-8.40
2022-12-17T17:25:13.135Z,-8.50
2022-12-17T17:27:43.239Z,-8.60
2022-12-17T17:30:14.749Z,-8.60
2022-12-17T17:32:44.885Z,-8.70
2022-12-17T17:35:17.621Z,-8.60
2022-12-17T17:37:47.522Z,-8.70
2022-12-17T17:40:17.759Z,-8.70
2022-12-17T17:42:51.717Z,-8.70
2022-12-17T17:45:23.258Z,-8.80
2022-12-17T17:47:53.137Z,-8.80
2022-12-17T17:50:25.655Z,-6.80
2022-12-17T17:52:55.642Z,-8.80
2022-12-17T17:55:25.596Z,-8.80
2022-12-17T17:57:56.060Z,-8.80
2022-12-17T18:00:25.957Z,-8.90
2022-12-17T18:02:56.090Z,-9.00
2022-12-17T18:05:28.767Z,-8.90
2022-12-17T18:07:58.680Z,-9.00
2022-12-17T18:10:29.129Z,-9.10
2022-12-17T18:13:11.601Z,-9.20
2022-12-17T18:15:41.588Z,-9.20
2022-12-17T18:18:14.666Z,-9.20
2022-12-17T18:20:47.463Z,-9.20
2022-12-17T18:23:17.481Z,-9.10
2022-12-17T18:25:47.424Z,-9.10
2022-12-17T18:28:17.499Z,-7.40
2022-12-17T18:30:50.486Z,-9.20
2022-12-17T18:33:20.366Z,-9.20
2022-12-17T18:35:52.979Z,-9.20
2022-12-17T18:38:22.895Z,-9.20
2022-12-17T18:40:52.799Z,-9.20
2022-12-17T18:43:23.302Z,-9.20
2022-12-17T18:45:53.710Z,-9.30
2022-12-17T18:48:24.676Z,-9.30
2022-12-17T18:51:01.210Z,-9.40
2022-12-17T18:53:33.669Z,-9.40
2022-12-17T18:56:11.029Z,-9.50
2022-12-17T18:58:41.029Z,-9.50
2022-12-17T19:01:11.047Z,-9.40
2022-12-17T19:03:41.063Z,-9.50
2022-12-17T19:06:13.778Z,-7.40
2022-12-17T19:08:43.662Z,-9.60
2022-12-17T19:11:19.863Z,-9.60
2022-12-17T19:13:50.947Z,-9.70
2022-12-17T19:16:23.466Z,-9.60
2022-12-17T19:18:55.591Z,-9.60
2022-12-17T19:21:30.528Z,-9.60
2022-12-17T19:24:03.478Z,-9.40
2022-12-17T19:26:34.419Z,-9.10
2022-12-17T19:29:05.408Z,-8.70
2022-12-17T19:31:35.676Z,-8.90
2022-12-17T19:34:07.848Z,-9.20
2022-12-17T19:36:41.887Z,-8.60
2022-12-17T19:39:15.187Z,-9.20
2022-12-17T19:41:45.324Z,-9.20
2022-12-17T19:44:16.902Z,-9.00
2022-12-17T19:46:47.272Z,-8.90
2022-12-17T19:49:18.370Z,-8.70
2022-12-17T19:51:51.238Z,-8.70
2022-12-17T19:54:21.133Z,-8.50
2022-12-17T19:56:51.063Z,-8.50
2022-12-17T19:59:20.968Z,-8.50
2022-12-17T20:01:51.043Z,-8.40
2022-12-17T20:04:22.186Z,-8.50
2022-12-17T20:06:54.765Z,-8.50
2022-12-17T20:09:24.777Z,-7.70
2022-12-17T20:11:54.735Z,-8.50
2022-12-17T20:14:30.669Z,-8.60
2022-12-17T20:17:02.703Z,-8.60
2022-12-17T20:22:08.965Z,-8.60
2022-12-17T20:24:39.568Z,-8.60
2022-12-17T20:27:10.989Z,-8.50
2022-12-17T20:29:41.007Z,-7.90
2022-12-17T20:32:11.032Z,-8.30
2022-12-17T20:34:41.091Z,-8.60
2022-12-17T20:37:13.653Z,-8.50
2022-12-17T20:39:43.581Z,-8.50
2022-12-17T20:42:13.650Z,-8.50
2022-12-17T20:44:48.631Z,-8.50
2022-12-17T20:47:21.625Z,-8.50
2022-12-17T20:49:51.582Z,-8.50
2022-12-17T20:52:24.123Z,-8.50
2022-12-17T20:54:54.062Z,-10.30
2022-12-17T20:57:24.022Z,-8.60
2022-12-17T20:59:53.939Z,-8.70
2022-12-17T21:02:23.977Z,-8.70
2022-12-17T21:04:54.060Z,-8.70
2022-12-17T21:07:26.600Z,-8.80
2022-12-17T21:09:56.776Z,-8.80
2022-12-17T21:12:47.131Z,-8.80
2022-12-17T21:15:17.223Z,-8.80
2022-12-17T21:17:47.137Z,-8.90
2022-12-17T21:20:17.246Z,-8.90
2022-12-17T21:22:50.053Z,-8.90
2022-12-17T21:25:20.158Z,-8.80
2022-12-17T21:27:50.072Z,-8.80
2022-12-17T21:30:20.327Z,-8.70
2022-12-17T21:32:50.216Z,-8.80
2022-12-17T21:35:20.377Z,-8.70
2022-12-17T21:37:52.997Z,-8.80
2022-12-17T21:40:23.003Z,-8.80
2022-12-17T21:43:05.819Z,-8.80
2022-12-17T21:45:40.142Z,-8.80
2022-12-17T21:48:11.863Z,-8.90
2022-12-17T21:50:45.711Z,-8.90
2022-12-17T21:53:19.082Z,-9.00
2022-12-17T21:55:49.532Z,-9.00
2022-12-17T21:58:21.840Z,-9.10
2022-12-17T22:00:51.787Z,-9.10
2022-12-17T22:03:21.669Z,-9.10
2022-12-17T22:05:51.634Z,-9.10
2022-12-17T22:08:24.392Z,-9.10
2022-12-17T22:10:54.496Z,-9.10
2022-12-17T22:13:36.874Z,-9.10
2022-12-17T22:16:09.169Z,-9.10
2022-12-17T22:18:39.480Z,-9.10
2022-12-17T22:21:09.997Z,-9.10
2022-12-17T22:23:42.553Z,-9.10
2022-12-17T22:26:13.214Z,-9.70
2022-12-17T22:28:43.124Z,-10.00
2022-12-17T22:31:27.955Z,-10.10
2022-12-17T22:34:31.053Z,-9.80
2022-12-17T22:40:08.605Z,-9.60
2022-12-17T22:43:45.209Z,-9.50
2022-12-17T22:44:36.241Z,-9.40
2022-12-17T22:45:33.136Z,-9.40
2022-12-17T22:48:03.109Z,-9.30
2022-12-17T22:50:36.100Z,-9.40
2022-12-17T22:53:09.998Z,-9.40
2022-12-17T22:55:42.940Z,-9.40
2022-12-17T22:58:13.197Z,-9.30
2022-12-17T23:00:43.358Z,-9.30
2022-12-17T23:03:13.457Z,-9.40
2022-12-17T23:05:43.453Z,-9.50
2022-12-17T23:08:13.386Z,-9.50
2022-12-17T23:10:45.887Z,-9.50
2022-12-17T23:13:15.810Z,-9.50
2022-12-17T23:15:45.767Z,-9.60
2022-12-17T23:18:15.733Z,-9.70
2022-12-17T23:20:45.655Z,-9.70
2022-12-17T23:23:15.533Z,-9.70
2022-12-17T23:25:48.075Z,-9.70
2022-12-17T23:28:17.960Z,-9.70
2022-12-17T23:30:47.881Z,-9.80
2022-12-17T23:33:17.799Z,-9.90
2022-12-17T23:35:47.761Z,-9.90
2022-12-17T23:38:17.744Z,-9.80
2022-12-17T23:40:50.367Z,-9.80
2022-12-17T23:43:20.271Z,-9.80
2022-12-17T23:45:50.299Z,-9.80
2022-12-17T23:48:20.234Z,-9.80
2022-12-17T23:50:50.159Z,-9.80
2022-12-17T23:53:20.063Z,-9.80
2022-12-17T23:55:54.095Z,-9.80
2022-12-17T23:58:24.624Z,-9.80
